Time;durP1;ratioP1;P1;durP2;ratioP2;P2;SDS_P1;SDS_P2;PMS_P1;PMS_P2;Temp;Humidity;BMP_temperature;BMP_pressure;BME280_temperature;BME280_humidity;BME280_pressure;Samples;Min_cycle;Max_cycle;Signal;HPM_P1;HPM_P2
2021/09/13 00:00:15;;;;;;;24.20;17.42;;;;;;;15.64;62.54;99214.32;1751283;80;21025;-44
2021/09/13 00:02:42;;;;;;;27.27;18.40;;;;;;;15.63;62.74;99217.66;1775085;80;20962;-44
2021/09/13 00:05:10;;;;;;;24.90;18.55;;;;;;;15.64;62.88;99214.32;1782182;79;21017;-44
2021/09/13 00:07:39;;;;;;;25.85;17.92;;;;;;;15.64;62.92;99217.05;1779554;80;20930;-44
2021/09/13 00:10:09;;;;;;;23.60;17.87;;;;;;;15.62;62.84;99212.59;1759959;80;20966;-44
2021/09/13 00:12:36;;;;;;;31.20;19.20;;;;;;;15.60;63.03;99210.83;1751510;80;21029;-44
2021/09/13 00:15:05;;;;;;;27.52;19.35;;;;;;;15.58;62.93;99211.83;1751238;82;21020;-44
2021/09/13 00:17:32;;;;;;;30.97;20.08;;;;;;;15.54;62.83;99206.97;1770739;80;21297;-44
2021/09/13 00:19:59;;;;;;;26.65;19.52;;;;;;;15.49;62.91;99207.34;1752351;80;21933;-44
2021/09/13 00:22:26;;;;;;;27.10;18.50;;;;;;;15.46;63.01;99209.48;1771302;80;20953;-44
2021/09/13 00:24:55;;;;;;;24.70;17.10;;;;;;;15.47;62.98;99202.85;1782509;80;20891;-44
2021/09/13 00:27:24;;;;;;;28.93;18.73;;;;;;;15.51;62.80;99204.42;1758399;80;21606;-44
2021/09/13 00:29:51;;;;;;;30.85;19.12;;;;;;;15.52;62.57;99203.26;1753006;80;21072;-44
2021/09/13 00:32:19;;;;;;;32.20;19.12;;;;;;;15.48;62.04;99203.05;1769975;80;22081;-44
2021/09/13 00:34:48;;;;;;;27.77;19.25;;;;;;;15.31;62.06;99187.48;1738138;80;21586;-44
2021/09/13 00:37:17;;;;;;;31.33;19.40;;;;;;;15.38;62.60;99197.03;1742406;80;20969;-44
2021/09/13 00:39:44;;;;;;;29.85;19.45;;;;;;;15.38;62.60;99197.03;1751714;80;21555;-44
2021/09/13 00:42:12;;;;;;;28.73;18.90;;;;;;;15.37;62.57;99196.83;1769063;80;21005;-44
2021/09/13 00:44:40;;;;;;;27.02;18.98;;;;;;;15.35;62.60;99190.39;1752777;80;21005;-44
2021/09/13 00:47:07;;;;;;;24.60;17.70;;;;;;;15.33;62.64;99195.48;1740447;80;21025;-44
2021/09/13 00:49:35;;;;;;;26.60;17.80;;;;;;;15.31;62.76;99191.58;1746364;80;21190;-44
2021/09/13 00:52:03;;;;;;;22.82;16.75;;;;;;;15.28;62.91;99195.11;1756644;80;21052;-44
2021/09/13 00:54:29;;;;;;;24.95;17.00;;;;;;;15.30;62.89;99193.52;1758614;80;21522;-44
2021/09/13 00:56:56;;;;;;;29.80;17.52;;;;;;;15.33;62.72;99187.88;1757133;80;21210;-44
2021/09/13 00:59:23;;;;;;;26.00;16.75;;;;;;;15.32;62.65;99190.41;1761457;80;22045;-44
2021/09/13 01:01:52;;;;;;;25.68;16.70;;;;;;;15.28;62.77;99190.42;1757163;80;21548;-44
2021/09/13 01:04:18;;;;;;;27.77;17.60;;;;;;;15.26;62.94;99181.84;1770126;80;21001;-44
2021/09/13 01:06:47;;;;;;;23.32;16.25;;;;;;;15.22;62.92;99185.95;1787561;79;20961;-44
2021/09/13 01:09:15;;;;;;;22.32;16.17;;;;;;;15.13;63.07;99187.53;1727628;82;22029;-44
2021/09/13 01:11:43;;;;;;;23.05;15.80;;;;;;;15.09;63.36;99191.64;1694667;82;20985;-44
2021/09/13 01:14:14;;;;;;;24.30;16.27;;;;;;;15.07;63.42;99187.73;1720916;82;20938;-44
2021/09/13 01:16:41;;;;;;;24.00;16.32;;;;;;;15.06;63.23;99191.05;1715885;83;20961;-44
2021/09/13 01:19:08;;;;;;;21.52;14.90;;;;;;;15.03;63.27;99193.21;1702104;82;21030;-44
2021/09/13 01:21:36;;;;;;;22.93;15.25;;;;;;;15.04;63.30;99196.14;1694514;83;21825;-44
2021/09/13 01:24:05;;;;;;;20.43;14.60;;;;;;;15.10;63.26;99195.16;1711379;83;20980;-44
2021/09/13 01:26:33;;;;;;;18.27;14.10;;;;;;;15.13;63.13;99193.78;1671097;83;21042;-44
2021/09/13 01:29:00;;;;;;;20.70;14.85;;;;;;;15.14;63.17;99198.08;1690838;83;21101;-44
2021/09/13 01:31:29;;;;;;;23.07;15.13;;;;;;;15.13;63.22;99197.88;1699099;83;21079;-44
2021/09/13 01:33:56;;;;;;;21.33;15.70;;;;;;;15.13;63.10;99196.51;1709816;83;21131;-44
2021/09/13 01:36:25;;;;;;;23.12;15.78;;;;;;;15.14;62.92;99198.66;1691469;83;20976;-44
2021/09/13 01:38:52;;;;;;;25.60;15.83;;;;;;;15.10;62.69;99200.01;1712705;83;21561;-44
2021/09/13 01:41:20;;;;;;;22.48;15.20;;;;;;;14.99;62.68;99196.53;1719540;83;21487;-44
2021/09/13 01:43:46;;;;;;;21.30;14.70;;;;;;;14.86;62.90;99194.03;1719134;83;21045;-44
2021/09/13 01:46:13;;;;;;;23.45;16.48;;;;;;;14.70;63.31;99197.73;1693988;83;21930;-44
2021/09/13 01:48:41;;;;;;;20.35;15.10;;;;;;;14.63;63.73;99196.36;1693018;83;21036;-44
2021/09/13 01:51:08;;;;;;;20.10;13.70;;;;;;;14.63;63.87;99190.32;1701602;83;21051;-44
2021/09/13 01:53:35;;;;;;;19.05;13.68;;;;;;;14.68;63.68;99190.51;1701568;83;20958;-44
2021/09/13 01:56:04;;;;;;;21.35;14.78;;;;;;;14.70;63.72;99195.00;1686739;83;21549;-44
2021/09/13 01:58:31;;;;;;;26.65;14.95;;;;;;;14.71;63.82;99189.75;1686702;83;21984;-44
2021/09/13 02:00:58;;;;;;;22.80;14.30;;;;;;;14.75;63.81;99195.39;1694228;83;20929;-44
2021/09/13 02:03:26;;;;;;;24.65;14.78;;;;;;;14.78;63.70;99189.73;1673850;85;21013;-44
2021/09/13 02:05:54;;;;;;;21.30;14.05;;;;;;;14.78;63.55;99185.05;1715526;83;21039;-44
2021/09/13 02:08:23;;;;;;;24.83;14.07;;;;;;;14.74;63.48;99180.19;1740872;80;21512;-44
2021/09/13 02:10:50;;;;;;;24.80;15.43;;;;;;;14.71;63.57;99180.98;1774609;80;21877;-44
2021/09/13 02:13:16;;;;;;;21.42;14.78;;;;;;;14.67;63.63;99183.48;1733496;80;20961;-44
2021/09/13 02:15:43;;;;;;;19.50;13.45;;;;;;;14.64;63.69;99184.28;1750981;82;21056;-44
2021/09/13 02:18:11;;;;;;;20.97;13.10;;;;;;;14.64;63.79;99187.80;1751260;82;21590;-44
2021/09/13 02:20:41;;;;;;;;;;;;;;;14.71;63.74;99189.17;1777578;80;21060;-44
2021/09/13 02:23:07;;;;;;;17.37;13.32;;;;;;;14.75;63.61;99187.80;1751709;82;21112;-44
2021/09/13 02:25:36;;;;;;;21.55;13.95;;;;;;;14.67;63.77;99187.58;1754589;80;20985;-44
2021/09/13 02:28:03;;;;;;;21.77;13.85;;;;;;;14.71;63.46;99181.56;1736587;80;21099;-44
2021/09/13 02:30:31;;;;;;;21.35;13.68;;;;;;;14.73;63.20;99190.12;1764137;80;21535;-44
2021/09/13 02:32:57;;;;;;;24.27;14.83;;;;;;;14.73;63.05;99184.66;1754931;80;21081;-44
2021/09/13 02:35:26;;;;;;;23.07;14.43;;;;;;;14.70;63.02;99186.82;1778583;79;21151;-44
2021/09/13 02:37:54;;;;;;;21.60;14.85;;;;;;;14.68;63.22;99190.51;1776810;80;21033;-44
2021/09/13 02:40:23;;;;;;;19.27;13.80;;;;;;;14.65;63.22;99185.84;1761487;80;20996;-44
2021/09/13 02:42:50;;;;;;;23.45;14.98;;;;;;;14.62;63.05;99186.03;1764143;80;21033;-44
2021/09/13 02:45:18;;;;;;;18.73;14.33;;;;;;;14.60;62.91;99191.69;1753677;80;21009;-45
2021/09/13 02:47:44;;;;;;;18.17;13.05;;;;;;;14.56;63.00;99189.55;1780625;80;21133;-44
2021/09/13 02:50:12;;;;;;;18.00;14.13;;;;;;;14.56;63.03;99192.28;1782279;80;20906;-44
2021/09/13 02:52:39;;;;;;;20.55;13.80;;;;;;;14.61;62.93;99186.44;1765641;80;21495;-44
2021/09/13 02:55:09;;;;;;;24.52;13.60;;;;;;;14.64;62.91;99191.10;1746947;80;20930;-44
2021/09/13 02:57:35;;;;;;;21.42;13.75;;;;;;;14.64;62.71;99191.10;1747989;80;21096;-44
2021/09/13 03:00:03;;;;;;;21.95;13.40;;;;;;;14.63;62.80;99188.95;1736711;80;21533;-44
2021/09/13 03:02:31;;;;;;;19.98;13.93;;;;;;;14.64;62.85;99192.47;1743471;80;21480;-44
2021/09/13 03:04:59;;;;;;;18.02;13.43;;;;;;;14.63;62.93;99188.17;1743151;82;21515;-44
2021/09/13 03:07:25;;;;;;;19.90;13.72;;;;;;;14.61;63.00;99189.16;1766039;80;21065;-44
2021/09/13 03:09:52;;;;;;;18.55;12.93;;;;;;;14.58;62.98;99192.08;1773764;80;21042;-44
2021/09/13 03:12:19;;;;;;;20.15;13.08;;;;;;;14.56;62.90;99193.64;1758198;80;21927;-44
2021/09/13 03:14:48;;;;;;;21.12;14.47;;;;;;;14.53;63.02;99188.37;1764546;80;20942;-44
2021/09/13 03:17:15;;;;;;;17.98;12.75;;;;;;;14.49;63.10;99189.54;1768239;80;20976;-44
2021/09/13 03:19:43;;;;;;;16.62;12.25;;;;;;;14.48;63.16;99192.06;1771692;80;21503;-44
2021/09/13 03:22:11;;;;;;;18.15;13.75;;;;;;;14.50;63.04;99187.02;1735591;82;20973;-44
2021/09/13 03:24:38;;;;;;;19.95;13.80;;;;;;;14.51;63.12;99189.94;1773863;80;21953;-44
2021/09/13 03:27:04;;;;;;;20.05;13.72;;;;;;;14.51;63.41;99197.55;1758897;80;20954;-44
2021/09/13 03:29:33;;;;;;;23.42;14.90;;;;;;;14.52;63.49;99194.23;1748619;80;21333;-44
2021/09/13 03:32:00;;;;;;;21.20;14.95;;;;;;;14.51;63.55;99190.72;1767875;80;20965;-44
2021/09/13 03:34:27;;;;;;;22.07;15.90;;;;;;;14.48;63.24;99187.39;1745035;80;21029;-44
2021/09/13 03:36:58;;;;;;;23.38;16.82;;;;;;;14.44;63.05;99187.20;1710385;82;21122;-44
2021/09/13 03:39:23;;;;;;;27.87;20.57;;;;;;;14.39;63.10;99191.67;1771547;80;21001;-44
2021/09/13 03:41:50;;;;;;;23.92;16.75;;;;;;;14.35;63.23;99193.02;1758141;80;20981;-44
2021/09/13 03:44:17;;;;;;;21.60;16.17;;;;;;;14.32;63.40;99195.95;1737146;80;21026;-44
2021/09/13 03:46:43;;;;;;;20.05;16.12;;;;;;;14.32;63.52;99194.58;1721827;80;21607;-44
2021/09/13 03:49:19;;;;;;;22.85;17.35;;;;;;;14.40;63.48;99185.05;1769266;80;21841;-44
2021/09/13 03:51:47;;;;;;;24.18;16.23;;;;;;;14.43;63.33;99186.99;1741339;82;21033;-44
2021/09/13 03:54:13;;;;;;;23.35;16.87;;;;;;;14.41;63.36;99186.63;1745032;80;21009;-44
2021/09/13 03:56:40;;;;;;;22.13;16.35;;;;;;;14.40;63.40;99193.23;1751142;80;21080;-44
2021/09/13 03:59:08;;;;;;;24.02;18.17;;;;;;;14.43;63.38;99196.54;1764088;80;21025;-44
2021/09/13 04:01:36;;;;;;;23.40;16.87;;;;;;;14.43;63.44;99192.45;1761738;80;20995;-44
2021/09/13 04:04:05;;;;;;;23.67;17.85;;;;;;;14.42;63.25;99190.33;1767974;80;20950;-44
2021/09/13 04:08:33;;;;;;;23.50;17.95;;;;;;;14.45;63.36;99188.77;1777074;78;22812;-43
2021/09/13 04:11:17;;;;;;;27.22;20.30;;;;;;;14.33;63.64;99193.39;1758337;80;20953;-43
2021/09/13 04:13:36;;;;;;;22.55;18.02;;;;;;;14.29;63.68;99191.25;1751461;81;21504;-44
2021/09/13 04:16:07;;;;;;;26.48;18.57;;;;;;;14.33;63.79;99197.48;1735829;81;20918;-44
2021/09/13 04:18:50;;;;;;;30.00;19.52;;;;;;;14.42;63.83;99190.33;1672594;84;21549;-44
2021/09/13 04:21:25;;;;;;;24.55;18.87;;;;;;;14.46;63.74;99187.59;1754888;79;20942;-44
2021/09/13 04:23:57;;;;;;;24.82;18.82;;;;;;;14.48;63.78;99190.70;1777342;79;21685;-44
2021/09/13 04:26:38;;;;;;;25.90;18.80;;;;;;;14.49;63.80;99198.50;1757031;81;21484;-44
2021/09/13 04:29:22;;;;;;;24.67;19.05;;;;;;;14.51;63.90;99188.58;1757595;80;20961;-43
2021/09/13 04:31:57;;;;;;;28.35;19.62;;;;;;;14.55;64.01;99194.81;1719877;80;20930;-44
2021/09/13 04:34:25;;;;;;;22.17;18.30;;;;;;;14.57;64.02;99195.97;1750947;80;21674;-44
2021/09/13 04:36:59;;;;;;;24.82;18.45;;;;;;;14.57;63.93;99197.33;1753972;80;21059;-44
2021/09/13 04:39:34;;;;;;;24.80;18.35;;;;;;;14.58;64.14;99196.75;1762441;80;21016;-44
2021/09/13 04:42:04;;;;;;;20.70;17.42;;;;;;;14.63;64.28;99197.72;1761410;80;21080;-44
2021/09/13 04:44:35;;;;;;;24.80;18.80;;;;;;;14.73;64.39;99191.48;1785980;79;20957;-44
2021/09/13 04:47:21;;;;;;;25.85;18.65;;;;;;;14.82;64.28;99194.59;1786675;80;21488;-44
2021/09/13 04:50:06;;;;;;;26.15;18.65;;;;;;;14.86;64.14;99195.39;1719956;81;21101;-44
2021/09/13 04:52:51;;;;;;;27.10;20.23;;;;;;;14.91;63.93;99194.97;1762929;80;21130;-43
2021/09/13 04:55:18;;;;;;;26.93;19.40;;;;;;;14.92;63.85;99188.93;1753148;80;21033;-44
2021/09/13 04:57:46;;;;;;;28.62;20.17;;;;;;;14.97;64.01;99192.63;1772391;80;21495;-44
2021/09/13 05:00:16;;;;;;;24.35;18.98;;;;;;;15.03;64.09;99187.75;1756923;81;21028;-43
2021/09/13 05:02:43;;;;;;;;;;;;;;;15.08;63.95;99187.94;1759214;81;21036;-44
2021/09/13 05:05:11;;;;;;;24.43;18.80;;;;;;;15.08;63.98;99189.30;1756829;81;20089;-44
2021/09/13 05:07:38;;;;;;;24.40;18.00;;;;;;;15.01;64.14;99190.08;1748314;81;20973;-43
2021/09/13 05:10:06;;;;;;;26.25;17.75;;;;;;;15.06;64.21;99186.17;1743874;80;21009;-44
2021/09/13 05:12:33;;;;;;;25.05;18.55;;;;;;;15.15;64.21;99188.69;1770058;80;21576;-44
2021/09/13 05:15:00;;;;;;;26.82;19.12;;;;;;;15.22;64.22;99185.95;1767113;80;21042;-44
2021/09/13 05:17:27;;;;;;;25.82;19.75;;;;;;;15.26;64.58;99187.30;1743861;80;21132;-44
2021/09/13 05:19:56;;;;;;;34.53;20.52;;;;;;;15.31;65.25;99193.72;1739091;80;21005;-44
2021/09/13 05:22:24;;;;;;;37.10;24.27;;;;;;;15.38;65.86;99191.56;1738446;80;21518;-44
2021/09/13 05:24:52;;;;;;;33.70;23.25;;;;;;;15.41;65.91;99191.55;1747685;80;21588;-41
2021/09/13 05:27:20;;;;;;;33.67;20.62;;;;;;;15.50;65.87;99182.34;1742811;80;21045;-41
2021/09/13 05:29:46;;;;;;;31.02;19.92;;;;;;;15.67;65.74;99187.58;1732373;80;21118;-41
2021/09/13 05:32:13;;;;;;;28.62;20.45;;;;;;;15.86;65.37;99184.36;1743186;82;21532;-41
2021/09/13 05:34:40;;;;;;;31.20;20.57;;;;;;;15.95;65.11;99180.59;1771309;80;20964;-41
2021/09/13 05:37:07;;;;;;;29.30;20.12;;;;;;;16.05;65.04;99180.34;1759657;80;21028;-41
2021/09/13 05:39:35;;;;;;;26.82;20.20;;;;;;;16.13;65.08;99175.60;1743222;82;21065;-40
2021/09/13 05:42:05;;;;;;;;;;;;;;;16.25;65.24;99178.66;1749764;80;22017;-41
2021/09/13 05:44:33;;;;;;;25.32;19.48;;;;;;;16.34;65.19;99173.51;1767547;80;20122;-41
2021/09/13 05:47:00;;;;;;;27.90;20.20;;;;;;;16.36;65.57;99176.61;1755062;80;20970;-41
2021/09/13 05:49:28;;;;;;;26.12;18.35;;;;;;;16.50;65.62;99171.64;1745318;80;21015;-40
2021/09/13 05:51:54;;;;;;;25.40;18.75;;;;;;;16.64;65.22;99172.91;1769011;80;21056;-40
2021/09/13 05:54:25;;;;;;;24.70;18.15;;;;;;;16.81;65.08;99174.70;1777388;80;21139;-40
2021/09/13 05:56:55;;;;;;;23.98;17.57;;;;;;;16.93;65.01;99172.84;1767090;80;20996;-40
2021/09/13 05:59:24;;;;;;;23.45;19.05;;;;;;;17.06;64.35;99173.68;1742231;80;21112;-41
2021/09/13 06:01:52;;;;;;;23.90;17.98;;;;;;;17.16;64.04;99170.84;1742695;80;21042;-41
2021/09/13 06:04:19;;;;;;;22.62;18.67;;;;;;;17.27;64.04;99176.20;1742797;82;21049;-40
2021/09/13 06:06:46;;;;;;;24.60;18.67;;;;;;;17.37;63.94;99175.31;1744185;81;21808;-41
2021/09/13 06:09:13;;;;;;;25.45;18.12;;;;;;;17.46;63.75;99178.33;1754684;80;20925;-40
2021/09/13 06:11:40;;;;;;;23.32;18.00;;;;;;;17.57;63.51;99176.22;1757300;80;21000;-40
2021/09/13 06:14:08;;;;;;;24.43;18.00;;;;;;;17.72;63.33;99175.48;1786689;80;20946;-41
2021/09/13 06:16:35;;;;;;;24.40;18.20;;;;;;;17.87;62.77;99174.70;1756254;81;21086;-41
2021/09/13 06:19:02;;;;;;;26.97;18.30;;;;;;;17.99;62.51;99174.16;1739392;81;21123;-41
2021/09/13 06:21:29;;;;;;;22.93;17.62;;;;;;;18.11;62.06;99176.31;1758422;80;21024;-41
2021/09/13 06:23:57;;;;;;;26.15;18.17;;;;;;;18.23;62.09;99175.16;1756701;79;21040;-41
2021/09/13 06:26:24;;;;;;;22.32;16.50;;;;;;;18.36;62.03;99172.61;1750293;81;21016;-40
2021/09/13 06:28:51;;;;;;;23.98;17.15;;;;;;;18.49;61.64;99180.43;1753887;80;21757;-40
2021/09/13 06:31:18;;;;;;;20.15;16.27;;;;;;;18.62;61.21;99179.30;1744716;80;21527;-41
2021/09/13 06:33:45;;;;;;;24.15;16.30;;;;;;;18.75;60.60;99176.72;1756429;81;21040;-40
2021/09/13 06:36:13;;;;;;;21.42;15.78;;;;;;;18.88;60.41;99179.05;1758660;80;20922;-41
2021/09/13 06:38:45;;;;;;;20.25;15.13;;;;;;;19.00;60.14;99176.47;1756551;81;21560;-41
2021/09/13 06:41:12;;;;;;;18.65;14.87;;;;;;;19.19;59.55;99175.53;1757616;80;21590;-41
2021/09/13 06:43:43;;;;;;;18.20;14.50;;;;;;;19.35;58.28;99176.40;1778539;80;22363;-40
2021/09/13 06:46:14;;;;;;;20.97;14.03;;;;;;;19.53;58.11;99172.72;1765308;80;20972;-40
2021/09/13 06:48:43;;;;;;;22.25;15.95;;;;;;;19.70;57.50;99174.94;1749514;80;20943;-41
2021/09/13 06:51:11;;;;;;;27.95;18.80;;;;;;;19.89;57.43;99169.23;1757475;80;21016;-40
2021/09/13 06:53:37;;;;;;;32.80;22.10;;;;;;;20.04;56.44;99170.47;1767090;80;21102;-40
2021/09/13 06:56:04;;;;;;;31.00;20.95;;;;;;;20.20;55.73;99170.47;1785848;80;21140;-41
2021/09/13 06:58:34;;;;;;;33.67;22.70;;;;;;;20.34;54.85;99167.41;1775471;80;21056;-41
2021/09/13 07:01:00;;;;;;;32.10;18.60;;;;;;;20.47;54.36;99162.02;1742728;80;21502;-41
2021/09/13 07:03:27;;;;;;;23.38;16.37;;;;;;;20.60;53.80;99168.37;1786826;80;21015;-41
2021/09/13 07:05:54;;;;;;;24.63;16.67;;;;;;;20.72;53.43;99167.66;1782285;80;21004;-41
2021/09/13 07:08:22;;;;;;;20.43;14.58;;;;;;;20.86;52.32;99169.30;1747984;81;21128;-41
2021/09/13 07:10:49;;;;;;;19.75;13.20;;;;;;;20.97;51.31;99164.86;1743098;82;20927;-41
2021/09/13 07:13:16;;;;;;;18.62;13.53;;;;;;;21.08;50.17;99168.89;1744491;80;21005;-41
2021/09/13 07:15:42;;;;;;;20.25;13.85;;;;;;;21.19;49.97;99172.78;1744152;80;21623;-41
2021/09/13 07:18:09;;;;;;;20.35;14.47;;;;;;;21.30;50.79;99169.73;1745530;80;21049;-40
2021/09/13 07:20:37;;;;;;;23.38;14.38;;;;;;;21.43;50.16;99171.32;1743048;82;21131;-41
2021/09/13 07:23:04;;;;;;;22.80;14.03;;;;;;;21.57;49.91;99170.91;1745997;80;21073;-41
2021/09/13 07:25:31;;;;;;;23.05;13.43;;;;;;;21.71;49.31;99170.33;1713535;83;20978;-41
2021/09/13 07:27:58;;;;;;;20.52;13.65;;;;;;;21.86;49.59;99175.59;1766488;80;21009;-41
2021/09/13 07:30:26;;;;;;;19.73;13.05;;;;;;;22.00;49.87;99175.20;1735373;80;21519;-41
2021/09/13 07:32:53;;;;;;;18.90;13.08;;;;;;;22.15;48.20;99169.41;1746316;80;21053;-41
2021/09/13 07:35:20;;;;;;;17.50;12.78;;;;;;;22.32;48.49;99176.95;1714510;82;21041;-41
2021/09/13 07:37:47;;;;;;;19.60;12.63;;;;;;;22.45;47.62;99183.27;1719909;80;21073;-41
2021/09/13 07:40:13;;;;;;;18.65;12.85;;;;;;;22.58;47.42;99179.09;1755804;80;21041;-41
2021/09/13 07:42:41;;;;;;;19.50;11.95;;;;;;;22.71;48.00;99180.64;1767662;80;21043;-41
2021/09/13 07:45:09;;;;;;;17.95;12.60;;;;;;;22.84;46.99;99180.02;1769097;80;21126;-41
2021/09/13 07:47:36;;;;;;;15.60;11.80;;;;;;;22.96;46.35;99176.43;1759421;80;21897;-41
2021/09/13 07:50:05;;;;;;;15.55;12.35;;;;;;;23.09;47.06;99176.38;1745044;80;20948;-41
2021/09/13 07:52:32;;;;;;;17.55;12.30;;;;;;;23.23;45.42;99172.36;1756559;80;20919;-41
2021/09/13 07:54:58;;;;;;;21.07;13.03;;;;;;;23.36;44.95;99177.99;1746153;80;21516;-41
2021/09/13 07:57:25;;;;;;;18.40;13.03;;;;;;;23.49;45.15;99173.80;1735240;80;21184;-41
2021/09/13 07:59:52;;;;;;;18.57;12.70;;;;;;;23.62;44.83;99176.51;1739232;80;21013;-41
2021/09/13 08:02:19;;;;;;;18.15;12.28;;;;;;;23.72;44.68;99173.32;1751340;80;21012;-41
2021/09/13 08:04:46;;;;;;;17.80;11.93;;;;;;;23.83;44.41;99176.47;1745061;80;21535;-41
2021/09/13 08:07:12;;;;;;;16.60;12.25;;;;;;;23.94;44.00;99182.21;1721206;80;21120;-42
2021/09/13 08:09:41;;;;;;;16.15;12.07;;;;;;;24.03;44.50;99176.72;1671135;83;20999;-41
2021/09/13 08:12:09;;;;;;;15.08;10.88;;;;;;;24.12;43.45;99176.75;1672412;84;21993;-41
2021/09/13 08:14:36;;;;;;;14.30;10.55;;;;;;;24.20;42.92;99182.22;1700632;83;21036;-41
2021/09/13 08:17:04;;;;;;;18.52;10.75;;;;;;;24.27;42.19;99179.77;1711131;83;21066;-41
2021/09/13 08:19:31;;;;;;;16.48;11.20;;;;;;;24.31;41.85;99175.63;1702046;84;21100;-41
2021/09/13 08:21:58;;;;;;;14.95;10.50;;;;;;;24.32;42.36;99178.55;1692130;83;21092;-41
2021/09/13 08:24:24;;;;;;;15.63;10.20;;;;;;;24.35;41.30;99179.66;1702632;83;21083;-41
2021/09/13 08:26:53;;;;;;;13.40;9.73;;;;;;;24.37;41.56;99177.95;1686622;83;21121;-41
2021/09/13 08:29:19;;;;;;;14.33;10.45;;;;;;;24.43;41.60;99176.75;1702347;83;21515;-41
2021/09/13 08:31:47;;;;;;;16.70;10.28;;;;;;;24.50;42.38;99173.67;1707545;83;20968;-41
2021/09/13 08:34:16;;;;;;;14.05;9.75;;;;;;;24.58;41.18;99179.88;1720844;83;21932;-41
2021/09/13 08:36:44;;;;;;;17.70;10.65;;;;;;;24.66;41.02;99174.80;1705599;83;21073;-41
2021/09/13 08:39:10;;;;;;;12.95;10.60;;;;;;;24.73;40.90;99170.97;1693556;83;20981;-41
2021/09/13 08:41:37;;;;;;;13.15;9.93;;;;;;;24.82;41.16;99176.53;1693477;83;21056;-41
2021/09/13 08:44:06;;;;;;;13.53;10.68;;;;;;;24.94;41.25;99172.25;1691797;84;21033;-41
2021/09/13 08:46:40;;;;;;;15.08;10.60;;;;;;;25.03;40.78;99175.02;1710286;83;21870;-41
2021/09/13 08:49:15;;;;;;;13.00;10.35;;;;;;;25.06;40.33;99167.80;1709194;83;21262;-41
2021/09/13 08:51:32;;;;;;;15.30;10.63;;;;;;;25.14;41.19;99169.63;1682376;84;21494;-41
2021/09/13 08:54:07;;;;;;;14.85;10.82;;;;;;;25.21;39.70;99164.56;1693252;83;21128;-41
2021/09/13 08:59:08;;;;;;;15.88;10.43;;;;;;;25.34;40.10;99169.94;1663040;85;21618;-41
2021/09/13 09:01:35;;;;;;;17.67;10.60;;;;;;;25.42;40.56;99162.83;1645650;85;21051;-41
2021/09/13 09:04:02;;;;;;;15.00;10.90;;;;;;;25.51;40.78;99164.97;1663943;84;21068;-41
2021/09/13 09:06:37;;;;;;;16.67;10.55;;;;;;;25.67;40.19;99160.34;1695826;83;21057;-41
2021/09/13 09:09:09;;;;;;;16.30;9.90;;;;;;;25.83;38.36;99158.00;1698990;83;21893;-42
2021/09/13 09:12:02;;;;;;;13.60;10.38;;;;;;;25.92;38.08;99161.36;1680775;85;21848;-41
2021/09/13 09:14:42;;;;;;;16.85;10.35;;;;;;;25.98;37.46;99156.72;1731633;81;21012;-41
2021/09/13 09:17:25;;;;;;;17.35;10.88;;;;;;;26.09;37.31;99153.44;1742896;82;21556;-41
2021/09/13 09:20:06;;;;;;;15.50;11.03;;;;;;;26.17;37.09;99156.02;1735954;81;21080;-41
2021/09/13 09:22:36;;;;;;;14.90;10.80;;;;;;;26.27;36.83;99155.54;1727130;81;21053;-41
2021/09/13 09:25:06;;;;;;;20.70;11.40;;;;;;;26.41;36.30;99158.86;1732732;81;21934;-41
2021/09/13 09:27:33;;;;;;;16.73;11.68;;;;;;;26.50;35.41;99149.84;1699475;81;21111;-41
2021/09/13 09:30:15;;;;;;;20.12;12.63;;;;;;;26.58;35.63;99155.19;1697221;82;21009;-41
2021/09/13 09:32:42;;;;;;;17.17;11.88;;;;;;;26.65;36.17;99155.47;1736936;81;21011;-41
2021/09/13 09:35:16;;;;;;;14.93;11.48;;;;;;;26.71;35.09;99156.37;1749269;81;21008;-41
2021/09/13 09:37:44;;;;;;;18.20;11.38;;;;;;;26.75;35.66;99152.16;1736854;81;21116;-41
2021/09/13 09:40:12;;;;;;;14.90;11.53;;;;;;;26.90;34.69;99153.63;1730455;81;20977;-41
2021/09/13 09:42:39;;;;;;;17.95;11.60;;;;;;;26.97;33.26;99150.47;1731844;81;21529;-41
2021/09/13 09:45:19;;;;;;;17.82;12.28;;;;;;;26.97;34.32;99149.70;1753003;81;21340;-41
2021/09/13 09:47:45;;;;;;;17.52;12.50;;;;;;;27.06;34.75;99153.82;1739083;81;21048;-41
2021/09/13 09:50:12;;;;;;;17.30;12.37;;;;;;;27.13;34.75;99148.64;1671897;81;21590;-41
2021/09/13 09:52:41;;;;;;;17.52;11.55;;;;;;;27.23;34.29;99150.11;1727577;81;21018;-41
2021/09/13 09:55:18;;;;;;;18.48;12.35;;;;;;;27.37;35.08;99147.81;1710010;81;22421;-41
2021/09/13 09:58:06;;;;;;;17.02;11.80;;;;;;;27.50;34.58;99144.91;1725001;81;21004;-41
2021/09/13 10:00:36;;;;;;;19.00;13.03;;;;;;;27.54;34.06;99144.75;1723243;81;21040;-41
2021/09/13 10:03:02;;;;;;;15.58;12.30;;;;;;;27.55;33.70;99142.08;1715606;81;21071;-41
2021/09/13 10:05:30;;;;;;;19.73;11.90;;;;;;;27.55;33.48;99137.28;1716301;81;21439;-41
2021/09/13 10:07:57;;;;;;;17.20;12.07;;;;;;;27.58;33.42;99136.34;1712135;81;21001;-41
2021/09/13 10:10:30;;;;;;;18.60;10.88;;;;;;;27.73;33.64;99125.20;1722286;82;21582;-41
2021/09/13 10:13:00;;;;;;;15.95;11.22;;;;;;;27.88;33.14;99135.70;1702918;82;21039;-41
2021/09/13 10:15:28;;;;;;;14.65;10.05;;;;;;;27.90;33.64;99125.45;1713176;82;21125;-41
2021/09/13 10:18:31;;;;;;;12.73;9.70;;;;;;;27.99;33.98;99132.30;1716877;82;21012;-42
2021/09/13 10:21:30;;;;;;;;;;;;;;;;;;;;;
2021/09/13 10:23:37;;;;;;;14.75;8.88;;;;;;;28.00;32.85;99122.70;1728859;82;20932;-42
2021/09/13 10:26:05;;;;;;;14.60;10.08;;;;;;;28.04;32.44;99122.63;1747213;82;21051;-42
2021/09/13 10:28:31;;;;;;;14.85;9.18;;;;;;;28.06;33.39;99121.53;1707482;84;21866;-42
2021/09/13 10:30:58;;;;;;;14.78;9.10;;;;;;;28.08;32.79;99121.80;1707730;84;21523;-42
2021/09/13 10:33:25;;;;;;;15.20;9.38;;;;;;;28.12;32.88;99119.48;1724803;82;21012;-42
2021/09/13 10:35:58;;;;;;;14.30;9.45;;;;;;;28.20;32.90;99109.45;1743751;82;21037;-42
2021/09/13 10:38:45;;;;;;;12.65;9.40;;;;;;;28.39;33.17;99107.95;1748708;82;21471;-42
2021/09/13 10:41:15;;;;;;;12.90;9.40;;;;;;;28.64;32.27;99107.27;1719826;82;21062;-42
2021/09/13 10:44:09;;;;;;;16.73;9.25;;;;;;;28.61;32.42;99104.05;1656648;85;21052;-42
2021/09/13 10:47:02;;;;;;;15.00;8.90;;;;;;;28.56;32.74;99105.39;1678736;85;21554;-42
2021/09/13 10:49:31;;;;;;;13.85;9.95;;;;;;;28.51;32.94;99103.41;1713404;83;20973;-45
2021/09/13 10:52:31;;;;;;;13.30;8.63;;;;;;;28.64;32.99;99103.09;1738563;82;21013;-45
2021/09/13 10:55:25;;;;;;;12.88;8.20;;;;;;;28.86;32.33;99101.97;1721585;82;21160;-45
2021/09/13 10:58:12;;;;;;;11.08;8.43;;;;;;;29.09;32.64;99100.84;1732978;82;20980;-45
2021/09/13 11:00:50;;;;;;;12.60;8.43;;;;;;;29.36;32.39;99085.78;1694990;84;21084;-44
2021/09/13 11:03:31;;;;;;;11.75;8.83;;;;;;;29.71;31.70;99082.77;1692647;83;21498;-45
2021/09/13 11:06:15;;;;;;;9.98;7.25;;;;;;;29.95;32.75;99090.08;1665417;83;21044;-44
2021/09/13 11:08:51;;;;;;;9.45;6.95;;;;;;;30.18;31.25;99095.94;1674645;85;21122;-45
2021/09/13 11:11:32;;;;;;;9.33;7.50;;;;;;;30.23;31.22;99088.21;1676208;84;21588;-44
2021/09/13 11:14:06;;;;;;;10.60;7.22;;;;;;;30.28;31.17;99086.71;1676519;85;21013;-44
2021/09/13 11:16:47;;;;;;;7.08;6.30;;;;;;;30.37;30.52;99081.67;1680815;84;21539;-45
2021/09/13 11:19:16;;;;;;;9.23;7.33;;;;;;;30.50;31.00;99077.81;1680718;85;21053;-45
2021/09/13 11:21:55;;;;;;;7.95;6.70;;;;;;;30.59;30.58;99075.45;1698641;84;21104;-44
2021/09/13 11:24:29;;;;;;;7.28;6.12;;;;;;;30.57;30.56;99066.16;1687119;83;21048;-45
2021/09/13 11:27:02;;;;;;;10.55;6.42;;;;;;;30.63;31.15;99072.55;1686296;84;21037;-45
2021/09/13 11:29:37;;;;;;;8.45;6.87;;;;;;;30.72;30.55;99067.35;1685735;84;21632;-45
2021/09/13 11:32:13;;;;;;;8.60;6.55;;;;;;;30.74;31.17;99069.66;1683809;84;21057;-45
2021/09/13 11:34:45;;;;;;;8.93;7.55;;;;;;;30.84;30.94;99072.36;1689635;84;21144;-44
2021/09/13 11:37:23;;;;;;;9.38;7.60;;;;;;;30.87;30.33;99076.94;1683377;84;20981;-44